createdAt,value
2023-04-12T00:02:23.394Z,3.33
2023-04-12T00:05:27.053Z,3.13
2023-04-12T00:08:33.546Z,3.67
2023-04-12T00:11:37.660Z,3.70
2023-04-12T00:14:40.319Z,3.53
2023-04-12T00:17:43.017Z,3.53
2023-04-12T00:20:45.663Z,3.20
2023-04-12T00:23:49.396Z,3.20
2023-04-12T00:26:53.417Z,3.43
2023-04-12T00:29:56.448Z,3.07
2023-04-12T00:32:59.532Z,3.50
2023-04-12T00:36:02.422Z,3.57
2023-04-12T00:39:05.248Z,3.20
2023-04-12T00:42:09.272Z,3.13
2023-04-12T00:45:12.530Z,3.10
2023-04-12T00:48:16.082Z,3.10
2023-04-12T00:51:22.267Z,2.83
2023-04-12T00:54:25.774Z,3.00
2023-04-12T00:57:33.789Z,3.10
2023-04-12T01:00:36.480Z,3.00
2023-04-12T01:03:43.101Z,3.30
2023-04-12T01:07:07.246Z,2.70
2023-04-12T01:10:19.198Z,2.57
2023-04-12T01:13:31.390Z,3.00
2023-04-12T01:16:40.706Z,2.40
2023-04-12T01:19:57.597Z,2.77
2023-04-12T01:23:36.376Z,2.50
2023-04-12T01:26:44.180Z,3.13
2023-04-12T01:29:51.349Z,2.40
2023-04-12T01:32:56.545Z,2.67
2023-04-12T01:36:01.634Z,2.43
2023-04-12T01:39:05.628Z,2.37
2023-04-12T01:42:08.279Z,2.40
2023-04-12T01:45:12.877Z,2.40
2023-04-12T01:48:15.759Z,2.40
2023-04-12T01:51:29.103Z,2.40
2023-04-12T01:54:38.001Z,2.40
2023-04-12T01:57:41.884Z,2.50
2023-04-12T02:00:47.109Z,2.70
2023-04-12T02:03:51.406Z,2.60
2023-04-12T02:06:55.076Z,2.30
2023-04-12T02:09:57.744Z,2.30
2023-04-12T02:13:01.267Z,2.20
2023-04-12T02:16:07.790Z,2.30
2023-04-12T02:19:10.618Z,2.07
2023-04-12T02:22:13.265Z,2.00
2023-04-12T02:25:18.042Z,1.90
2023-04-12T02:28:20.722Z,1.83
2023-04-12T02:31:25.399Z,1.70
2023-04-12T02:34:31.284Z,1.97
2023-04-12T02:37:34.120Z,2.30
2023-04-12T02:40:40.691Z,1.97
2023-04-12T02:43:43.327Z,2.23
2023-04-12T02:46:47.279Z,2.50
2023-04-12T02:49:49.937Z,2.07
2023-04-12T02:52:53.299Z,1.90
2023-04-12T02:55:57.289Z,2.33
2023-04-12T02:58:59.941Z,1.83
2023-04-12T03:02:04.344Z,2.20
2023-04-12T03:05:08.028Z,1.90
2023-04-12T03:08:10.679Z,2.17
2023-04-12T03:11:13.334Z,1.90
2023-04-12T03:14:15.955Z,1.93
2023-04-12T03:17:19.926Z,2.17
2023-04-12T03:20:24.542Z,2.10
2023-04-12T03:23:27.180Z,2.10
2023-04-12T03:26:29.825Z,1.80
2023-04-12T03:29:33.186Z,1.83
2023-04-12T03:32:37.182Z,1.60
2023-04-12T03:35:39.935Z,2.07
2023-04-12T03:38:42.598Z,1.70
2023-04-12T03:41:45.416Z,1.73
2023-04-12T03:44:48.580Z,1.93
2023-04-12T03:47:52.768Z,1.87
2023-04-12T03:50:55.530Z,1.57
2023-04-12T03:53:58.330Z,2.50
2023-04-12T03:57:02.032Z,1.83
2023-04-12T04:00:06.101Z,1.80
2023-04-12T04:03:10.714Z,1.80
2023-04-12T04:06:13.528Z,1.67
2023-04-12T04:09:16.870Z,2.00
2023-04-12T04:12:19.507Z,1.73
2023-04-12T04:15:22.224Z,1.70
2023-04-12T04:18:26.243Z,1.77
2023-04-12T04:21:30.382Z,1.70
2023-04-12T04:24:34.137Z,2.50
2023-04-12T04:27:38.481Z,1.80
2023-04-12T04:30:41.331Z,1.93
2023-04-12T04:33:45.328Z,1.63
2023-04-12T04:36:47.976Z,1.80
2023-04-12T04:39:50.772Z,1.83
2023-04-12T04:42:55.296Z,1.83
2023-04-12T04:45:58.585Z,1.90
2023-04-12T04:49:02.747Z,1.80
2023-04-12T04:52:06.761Z,2.17
2023-04-12T04:55:11.584Z,2.43
2023-04-12T04:58:14.774Z,2.00
2023-04-12T05:01:17.833Z,1.93
2023-04-12T05:04:22.009Z,1.70
2023-04-12T05:07:26.151Z,1.63
2023-04-12T05:10:28.868Z,2.10
2023-04-12T05:13:31.544Z,2.17
2023-04-12T05:16:34.280Z,2.17
2023-04-12T05:19:38.311Z,2.07
2023-04-12T05:22:40.904Z,1.90
2023-04-12T05:25:48.266Z,1.83
2023-04-12T05:28:51.060Z,2.20
2023-04-12T05:31:53.690Z,1.73
2023-04-12T05:34:57.735Z,1.80
2023-04-12T05:38:00.571Z,2.13
2023-04-12T05:41:04.623Z,1.97
2023-04-12T05:44:07.304Z,1.93
2023-04-12T05:47:09.947Z,2.00
2023-04-12T05:50:13.955Z,1.93
2023-04-12T05:53:16.594Z,2.10
2023-04-12T05:56:19.279Z,1.93
2023-04-12T05:59:22.382Z,1.80
2023-04-12T06:02:26.132Z,1.90
2023-04-12T06:05:30.457Z,2.30
2023-04-12T06:08:35.421Z,2.20
2023-04-12T06:11:39.406Z,2.13
2023-04-12T06:14:42.077Z,2.13
2023-04-12T06:17:45.163Z,2.20
2023-04-12T06:20:49.522Z,2.00
2023-04-12T06:23:52.264Z,1.93
2023-04-12T06:26:54.914Z,2.00
2023-04-12T06:29:57.609Z,1.73
2023-04-12T06:33:00.513Z,1.90
2023-04-12T06:36:05.168Z,2.03
2023-04-12T06:39:07.924Z,1.83
2023-04-12T06:42:12.103Z,1.70
2023-04-12T06:45:17.045Z,2.00
2023-04-12T06:48:19.713Z,1.60
2023-04-12T06:51:24.148Z,1.77
2023-04-12T06:54:26.996Z,2.00
2023-04-12T06:57:29.665Z,1.90
2023-04-12T07:00:32.639Z,2.00
2023-04-12T07:03:35.751Z,2.20
2023-04-12T07:06:40.152Z,1.97
2023-04-12T07:09:43.055Z,1.70
2023-04-12T07:12:45.828Z,1.97
2023-04-12T07:15:50.447Z,2.20
2023-04-12T07:18:53.072Z,1.87
2023-04-12T07:21:57.140Z,1.63
2023-04-12T07:25:00.033Z,2.30
2023-04-12T07:28:03.510Z,2.17
2023-04-12T07:31:07.384Z,2.20
2023-04-12T07:34:10.132Z,1.97
2023-04-12T07:37:14.311Z,1.67
2023-04-12T07:40:17.016Z,1.70
2023-04-12T07:43:19.681Z,1.93
2023-04-12T07:46:22.773Z,2.20
2023-04-12T07:49:25.744Z,2.17
2023-04-12T07:52:29.722Z,2.00
2023-04-12T07:55:32.497Z,2.10
2023-04-12T07:58:35.504Z,1.90
2023-04-12T08:01:38.157Z,2.03
2023-04-12T08:04:44.076Z,2.80
2023-04-12T08:07:48.114Z,2.10
2023-04-12T08:10:51.804Z,2.00
2023-04-12T08:13:54.409Z,1.90
2023-04-12T08:16:57.049Z,2.00
2023-04-12T08:19:59.733Z,1.90
2023-04-12T08:23:04.549Z,2.50
2023-04-12T08:26:07.290Z,2.03
2023-04-12T08:29:09.934Z,2.00
2023-04-12T08:32:12.749Z,1.97
2023-04-12T08:35:16.194Z,1.93
2023-04-12T08:38:25.432Z,2.00
2023-04-12T08:41:36.543Z,2.00
2023-04-12T08:44:40.959Z,1.70
2023-04-12T08:47:45.128Z,2.10
2023-04-12T08:50:50.103Z,2.10
2023-04-12T08:53:54.795Z,1.80
2023-04-12T08:56:59.617Z,1.70
2023-04-12T09:00:03.380Z,2.10
2023-04-12T09:03:06.540Z,2.13
2023-04-12T09:06:10.618Z,2.10
2023-04-12T09:09:14.692Z,2.20
2023-04-12T09:12:20.337Z,1.90
2023-04-12T09:15:23.004Z,2.07
2023-04-12T09:18:27.375Z,2.10
2023-04-12T09:21:30.567Z,2.00
2023-04-12T09:24:47.387Z,2.03
2023-04-12T09:27:51.502Z,2.37
2023-04-12T09:30:54.567Z,1.97
2023-04-12T09:34:07.841Z,2.00
2023-04-12T09:37:14.803Z,2.13
2023-04-12T09:40:25.261Z,2.00
2023-04-12T09:43:38.290Z,2.20
2023-04-12T09:46:51.793Z,1.80
2023-04-12T09:49:54.871Z,2.20
2023-04-12T09:52:58.233Z,1.80
2023-04-12T09:56:04.051Z,2.03
2023-04-12T09:59:08.028Z,2.00
2023-04-12T10:02:16.647Z,1.80
2023-04-12T10:05:21.125Z,2.00
2023-04-12T10:08:25.040Z,1.83
2023-04-12T10:11:29.508Z,1.83
2023-04-12T10:14:32.963Z,1.60
2023-04-12T10:17:36.277Z,1.70
2023-04-12T10:20:41.705Z,2.10
2023-04-12T10:23:45.486Z,2.30
2023-04-12T10:26:50.355Z,2.00
2023-04-12T10:29:53.098Z,1.70
2023-04-12T10:33:16.611Z,2.00
2023-04-12T10:36:19.481Z,1.93
2023-04-12T10:39:38.540Z,1.80
2023-04-12T10:42:42.592Z,1.73
2023-04-12T10:45:45.575Z,1.83
2023-04-12T10:48:53.737Z,1.67
2023-04-12T10:52:14.263Z,1.67
2023-04-12T10:55:35.383Z,1.70
2023-04-12T10:58:59.617Z,2.07
2023-04-12T11:02:20.329Z,2.13
2023-04-12T11:05:23.146Z,1.73
2023-04-12T11:08:27.278Z,2.00
2023-04-12T11:11:35.824Z,1.77
2023-04-12T11:14:45.769Z,2.00
2023-04-12T11:17:55.290Z,2.57
2023-04-12T11:20:58.284Z,2.37
2023-04-12T11:24:01.114Z,2.27
2023-04-12T11:27:05.312Z,2.53
2023-04-12T11:30:10.857Z,2.73
2023-04-12T11:33:13.593Z,2.80
2023-04-12T11:36:16.529Z,2.83
2023-04-12T11:39:19.747Z,2.67
2023-04-12T11:42:25.500Z,3.00
2023-04-12T11:45:31.873Z,3.20
2023-04-12T11:48:35.040Z,3.30
2023-04-12T11:51:37.714Z,3.00
2023-04-12T11:54:43.476Z,3.73
2023-04-12T11:57:54.144Z,3.93
2023-04-12T12:00:59.887Z,3.80
2023-04-12T12:04:03.382Z,3.33
2023-04-12T12:07:08.210Z,3.57
2023-04-12T12:10:13.302Z,3.50
2023-04-12T12:13:17.360Z,3.40
2023-04-12T12:16:25.706Z,3.30
2023-04-12T12:19:30.270Z,3.03
2023-04-12T12:22:33.148Z,3.30
2023-04-12T12:25:35.932Z,3.47
2023-04-12T12:28:38.954Z,3.23
2023-04-12T12:31:47.747Z,3.43
2023-04-12T12:34:55.585Z,3.00
2023-04-12T12:37:58.967Z,2.77
2023-04-12T12:41:15.509Z,3.20
2023-04-12T12:44:18.147Z,2.83
2023-04-12T12:47:22.302Z,2.77
2023-04-12T12:50:26.834Z,3.10
2023-04-12T12:53:29.522Z,2.97
2023-04-12T12:56:32.459Z,3.07
2023-04-12T12:59:35.077Z,2.70
2023-04-12T13:02:39.324Z,2.30
2023-04-12T13:05:42.063Z,2.20
2023-04-12T13:08:44.743Z,2.47
2023-04-12T13:11:47.404Z,2.00
2023-04-12T13:14:50.162Z,2.10
2023-04-12T13:17:54.508Z,2.40
2023-04-12T13:20:57.319Z,2.00
2023-04-12T13:23:59.925Z,1.93
2023-04-12T13:27:02.874Z,2.03
2023-04-12T13:30:06.822Z,1.80
2023-04-12T13:33:13.380Z,1.93
2023-04-12T13:36:18.693Z,2.17
2023-04-12T13:39:21.392Z,1.87
2023-04-12T13:42:24.409Z,2.10
2023-04-12T13:45:28.301Z,2.30
2023-04-12T13:48:32.399Z,1.90
2023-04-12T13:51:35.125Z,2.70
2023-04-12T13:54:37.823Z,2.40
2023-04-12T13:57:40.519Z,2.40
2023-04-12T14:00:43.121Z,2.50
2023-04-12T14:03:48.133Z,2.20
2023-04-12T14:06:51.090Z,2.73
2023-04-12T14:09:55.306Z,2.27
2023-04-12T14:12:58.088Z,2.50
2023-04-12T14:16:00.760Z,2.30
2023-04-12T14:19:04.713Z,2.27
2023-04-12T14:22:07.404Z,2.40
2023-04-12T14:25:11.700Z,2.50
2023-04-12T14:28:16.671Z,2.23
2023-04-12T14:31:19.462Z,2.43
2023-04-12T14:34:23.475Z,2.30
2023-04-12T14:37:26.108Z,1.93
2023-04-12T14:40:28.779Z,2.10
2023-04-12T14:43:31.438Z,2.00
2023-04-12T14:46:34.117Z,2.10
2023-04-12T14:49:38.314Z,1.87
2023-04-12T14:52:41.082Z,2.13
2023-04-12T14:55:46.621Z,1.70
2023-04-12T14:58:49.302Z,1.93
2023-04-12T15:01:53.040Z,1.87
2023-04-12T15:04:57.734Z,1.97
2023-04-12T15:08:00.555Z,2.00
2023-04-12T15:11:03.250Z,2.00
2023-04-12T15:14:07.029Z,2.03
2023-04-12T15:17:10.654Z,2.40
2023-04-12T15:20:16.490Z,2.30
2023-04-12T15:23:19.161Z,2.17
2023-04-12T15:26:21.836Z,1.97
2023-04-12T15:29:24.596Z,2.23
2023-04-12T15:32:28.940Z,2.37
2023-04-12T15:35:32.980Z,2.30
2023-04-12T15:38:42.103Z,2.30
2023-04-12T15:41:44.882Z,2.13
2023-04-12T15:44:47.589Z,2.37
2023-04-12T15:47:50.646Z,2.10
2023-04-12T15:50:57.345Z,2.37
2023-04-12T15:54:00.636Z,2.30
2023-04-12T15:57:09.395Z,2.60
2023-04-12T16:00:20.870Z,2.57
2023-04-12T16:03:24.737Z,2.50
2023-04-12T16:06:31.183Z,2.70
2023-04-12T16:09:34.801Z,2.67
2023-04-12T16:12:37.450Z,3.03
2023-04-12T16:15:40.059Z,2.57
2023-04-12T16:18:43.079Z,2.60
2023-04-12T16:21:47.181Z,2.50
2023-04-12T16:24:49.835Z,2.97
2023-04-12T16:27:52.724Z,2.50
2023-04-12T16:30:56.206Z,2.70
2023-04-12T16:33:59.274Z,2.17
2023-04-12T16:37:03.479Z,2.70
2023-04-12T16:40:10.401Z,2.43
2023-04-12T16:43:13.077Z,2.50
2023-04-12T16:46:15.793Z,2.50
2023-04-12T16:49:19.820Z,2.50
2023-04-12T16:52:23.974Z,2.53
2023-04-12T16:55:27.088Z,2.37
2023-04-12T16:58:29.904Z,2.67
2023-04-12T17:01:32.532Z,2.80
2023-04-12T17:04:35.412Z,2.67
2023-04-12T17:07:39.495Z,3.27
2023-04-12T17:10:42.370Z,2.73
2023-04-12T17:13:46.253Z,2.77
2023-04-12T17:16:48.910Z,2.73
2023-04-12T17:19:51.682Z,2.77
2023-04-12T17:22:56.471Z,2.70
2023-04-12T17:25:59.241Z,2.77
2023-04-12T17:29:02.273Z,3.40
2023-04-12T17:32:05.120Z,2.77
2023-04-12T17:35:08.794Z,2.90
2023-04-12T17:38:12.815Z,2.80
2023-04-12T17:41:15.419Z,2.83
2023-04-12T17:44:18.086Z,2.63
2023-04-12T17:47:20.872Z,2.57
2023-04-12T17:50:23.936Z,2.70
2023-04-12T17:53:27.934Z,3.00
2023-04-12T17:56:30.560Z,3.30
2023-04-12T17:59:33.750Z,2.87
2023-04-12T18:02:36.790Z,3.10
2023-04-12T18:05:40.828Z,2.60
2023-04-12T18:08:45.149Z,2.37
2023-04-12T18:11:48.039Z,2.97
2023-04-12T18:14:50.794Z,3.13
2023-04-12T18:17:53.529Z,2.50
2023-04-12T18:20:56.189Z,3.00
2023-04-12T18:24:01.579Z,3.30
2023-04-12T18:27:05.297Z,4.93
2023-04-12T18:30:09.381Z,3.43
2023-04-12T18:33:12.206Z,3.60
2023-04-12T18:36:14.901Z,3.27
2023-04-12T18:39:20.453Z,3.70
2023-04-12T18:42:23.140Z,3.37
2023-04-12T18:45:26.435Z,3.27
2023-04-12T18:48:30.221Z,3.40
2023-04-12T18:51:33.801Z,3.27
2023-04-12T18:54:37.803Z,3.43
2023-04-12T18:57:40.427Z,3.27
2023-04-12T19:00:43.367Z,3.50
2023-04-12T19:03:47.409Z,3.63
2023-04-12T19:06:50.764Z,3.20
2023-04-12T19:09:54.769Z,3.10
2023-04-12T19:12:57.540Z,3.20
2023-04-12T19:16:01.629Z,3.50
2023-04-12T19:19:04.437Z,3.80
2023-04-12T19:22:07.148Z,3.83
2023-04-12T19:25:12.178Z,3.83
2023-04-12T19:28:15.046Z,4.63
2023-04-12T19:31:17.911Z,4.37
2023-04-12T19:34:20.680Z,4.10
2023-04-12T19:37:23.694Z,3.20
2023-04-12T19:40:29.833Z,3.50
2023-04-12T19:43:33.667Z,3.13
2023-04-12T19:46:38.588Z,3.00
2023-04-12T19:49:41.272Z,2.90
2023-04-12T19:52:44.309Z,3.17
2023-04-12T19:55:48.365Z,3.27
2023-04-12T19:58:51.020Z,3.20
2023-04-12T20:01:54.832Z,3.57
2023-04-12T20:04:57.516Z,3.80
2023-04-12T20:08:00.185Z,4.30
2023-04-12T20:11:04.369Z,3.43
2023-04-12T20:14:08.147Z,4.47
2023-04-12T20:17:10.957Z,3.57
2023-04-12T20:20:14.103Z,3.10
2023-04-12T20:23:17.025Z,3.40
2023-04-12T20:26:21.220Z,2.90
2023-04-12T20:29:23.948Z,3.30
2023-04-12T20:32:26.724Z,2.40
2023-04-12T20:35:29.397Z,2.23
2023-04-12T20:38:32.099Z,1.93
2023-04-12T20:41:38.143Z,1.87
2023-04-12T20:44:40.812Z,2.00
2023-04-12T20:47:43.557Z,2.17
2023-04-12T20:50:46.783Z,2.07
2023-04-12T20:53:51.082Z,2.07
2023-04-12T20:56:55.076Z,2.20
2023-04-12T20:59:59.310Z,2.10
2023-04-12T21:03:03.141Z,1.93
2023-04-12T21:06:06.754Z,2.10
2023-04-12T21:09:10.589Z,1.70
2023-04-12T21:12:14.573Z,1.93
2023-04-12T21:15:21.596Z,2.10
2023-04-12T21:18:24.344Z,2.00
2023-04-12T21:21:27.336Z,2.23
2023-04-12T21:24:30.878Z,2.47
2023-04-12T21:27:35.144Z,2.00
2023-04-12T21:30:37.875Z,2.00
2023-04-12T21:33:40.577Z,2.43
2023-04-12T21:36:44.048Z,2.13
2023-04-12T21:39:47.387Z,1.87
2023-04-12T21:42:51.428Z,2.00
2023-04-12T21:45:54.535Z,2.30
2023-04-12T21:48:57.531Z,1.73
2023-04-12T21:52:00.413Z,2.60
2023-04-12T21:55:04.797Z,1.80
2023-04-12T21:58:08.867Z,1.80
2023-04-12T22:01:11.507Z,1.70
2023-04-12T22:04:14.259Z,2.03
2023-04-12T22:07:17.684Z,1.83
2023-04-12T22:10:20.611Z,1.97
2023-04-12T22:13:24.687Z,1.90
2023-04-12T22:16:27.853Z,1.97
2023-04-12T22:19:30.539Z,1.80
2023-04-12T22:22:33.261Z,1.80
2023-04-12T22:25:37.266Z,2.10
2023-04-12T22:28:41.348Z,2.40
2023-04-12T22:31:44.254Z,2.10
2023-04-12T22:34:48.413Z,2.40
2023-04-12T22:37:54.857Z,2.60
2023-04-12T22:41:02.288Z,2.47
2023-04-12T22:44:07.399Z,2.53
2023-04-12T22:47:10.373Z,2.67
2023-04-12T22:50:13.580Z,2.23
2023-04-12T22:53:16.212Z,2.47
2023-04-12T22:56:18.805Z,2.73
2023-04-12T22:59:23.825Z,2.30
2023-04-12T23:02:26.633Z,2.30
2023-04-12T23:05:29.895Z,2.50
2023-04-12T23:08:32.695Z,2.97
2023-04-12T23:11:36.176Z,2.30
2023-04-12T23:14:40.212Z,2.40
2023-04-12T23:17:42.979Z,2.60
2023-04-12T23:20:48.241Z,2.97
2023-04-12T23:23:50.915Z,2.37
2023-04-12T23:26:53.554Z,2.60
2023-04-12T23:29:57.603Z,2.50
2023-04-12T23:33:00.270Z,2.40
2023-04-12T23:36:04.938Z,2.77
2023-04-12T23:39:09.369Z,2.70
2023-04-12T23:42:12.089Z,2.63
2023-04-12T23:45:16.130Z,2.87
2023-04-12T23:48:19.025Z,2.73
2023-04-12T23:51:22.003Z,2.70
2023-04-12T23:54:24.649Z,2.73
2023-04-12T23:57:27.324Z,2.57
